Time;durP1;ratioP1;P1;durP2;ratioP2;P2;SDS_P1;SDS_P2;PMS_P1;PMS_P2;Temp;Humidity;BMP_temperature;BMP_pressure;BME280_temperature;BME280_humidity;BME280_pressure;Samples;Min_cycle;Max_cycle;Signal;HPM_P1;HPM_P2
2023/04/21 00:00:09;;;;;;;19.10;12.02;;;;;;;6.39;100.00;100836.38;6125651;28;20043;-88
2023/04/21 00:03:12;;;;;;;17.20;11.65;;;;;;;6.39;100.00;100831.22;6103338;28;20047;-89
2023/04/21 00:06:21;;;;;;;18.77;12.25;;;;;;;6.39;100.00;100829.47;6100362;28;20198;-88
2023/04/21 00:09:25;;;;;;;18.30;12.05;;;;;;;6.41;100.00;100830.22;6127898;28;20035;-88
2023/04/21 00:12:27;;;;;;;18.52;11.90;;;;;;;6.40;100.00;100822.59;6109355;28;20058;-88
2023/04/21 00:15:28;;;;;;;18.42;12.25;;;;;;;6.37;100.00;100828.72;6107718;28;20203;-88
2023/04/21 00:18:30;;;;;;;19.30;12.43;;;;;;;6.36;100.00;100826.22;6101778;28;20142;-88
2023/04/21 00:21:34;;;;;;;20.83;13.13;;;;;;;6.34;100.00;100813.50;6109758;28;20640;-88
2023/04/21 00:24:38;;;;;;;17.40;11.50;;;;;;;6.35;100.00;100822.03;6118708;28;20045;-88
2023/04/21 00:27:40;;;;;;;19.17;12.65;;;;;;;6.35;100.00;100814.31;6101330;28;20040;-89
2023/04/21 00:30:42;;;;;;;19.70;12.32;;;;;;;6.34;100.00;100812.66;6110285;28;20101;-88
2023/04/21 00:33:43;;;;;;;17.33;11.38;;;;;;;6.31;100.00;100811.09;6117143;28;20084;-88
2023/04/21 00:36:45;;;;;;;18.27;12.02;;;;;;;6.28;100.00;100807.84;6107606;28;20051;-88
2023/04/21 00:39:47;;;;;;;18.05;12.48;;;;;;;6.26;100.00;100802.81;6109632;28;20105;-88
2023/04/21 00:42:49;;;;;;;18.45;12.18;;;;;;;6.26;100.00;100797.69;6117618;28;20134;-88
2023/04/21 00:45:50;;;;;;;18.70;12.15;;;;;;;6.25;100.00;100793.44;6105022;28;20457;-88
2023/04/21 00:48:52;;;;;;;20.10;12.50;;;;;;;6.24;100.00;100797.75;6106614;28;20047;-88
2023/04/21 00:51:54;;;;;;;17.58;12.05;;;;;;;6.21;100.00;100792.78;6121815;28;20070;-89
2023/04/21 00:54:56;;;;;;;18.92;12.35;;;;;;;6.25;100.00;100790.88;6101555;28;20048;-88
2023/04/21 00:57:59;;;;;;;17.02;12.23;;;;;;;6.24;100.00;100781.50;6098774;28;20355;-88
2023/04/21 01:01:02;;;;;;;16.13;12.50;;;;;;;6.25;100.00;100783.97;6097928;28;20144;-88
2023/04/21 01:04:04;;;;;;;18.33;12.55;;;;;;;6.31;100.00;100789.69;6111996;28;20047;-88
2023/04/21 01:07:07;;;;;;;18.58;12.05;;;;;;;6.38;100.00;100789.25;6106821;28;20210;-88
2023/04/21 01:10:09;;;;;;;18.85;11.82;;;;;;;6.41;100.00;100791.66;6103518;28;20050;-89
2023/04/21 01:13:11;;;;;;;15.85;11.82;;;;;;;6.41;100.00;100793.38;6112614;28;20051;-88
2023/04/21 01:16:17;;;;;;;17.52;12.00;;;;;;;6.36;100.00;100785.09;6114057;28;20178;-88
2023/04/21 01:19:19;;;;;;;15.90;11.77;;;;;;;6.31;100.00;100792.25;6118939;28;20058;-88
2023/04/21 01:22:21;;;;;;;17.55;11.93;;;;;;;6.21;100.00;100794.50;6133554;28;20307;-89
2023/04/21 01:25:27;;;;;;;14.88;11.25;;;;;;;6.19;100.00;100796.38;6111680;28;20402;-89
2023/04/21 01:28:29;;;;;;;15.85;11.35;;;;;;;6.11;100.00;100790.81;6113420;28;20050;-89
2023/04/21 01:31:31;;;;;;;16.83;11.57;;;;;;;6.02;100.00;100798.13;6110265;28;20150;-89
2023/04/21 01:34:35;;;;;;;17.08;11.32;;;;;;;5.97;100.00;100789.03;6116276;28;20047;-89
2023/04/21 01:37:37;;;;;;;15.57;10.63;;;;;;;5.90;100.00;100791.06;6132418;28;20422;-89
2023/04/21 01:40:41;;;;;;;19.95;11.77;;;;;;;5.82;100.00;100791.47;6102373;28;20137;-89
2023/04/21 01:43:43;;;;;;;17.60;11.65;;;;;;;5.79;100.00;100783.13;6122945;28;20652;-89
2023/04/21 01:46:46;;;;;;;18.05;11.38;;;;;;;5.74;100.00;100790.22;6104626;28;20043;-89
2023/04/21 01:49:48;;;;;;;18.35;11.25;;;;;;;5.70;100.00;100783.63;6122507;28;20040;-89
2023/04/21 01:52:53;;;;;;;19.05;12.82;;;;;;;5.69;100.00;100790.50;6127858;28;20047;-89
2023/04/21 01:55:55;;;;;;;17.52;11.65;;;;;;;5.65;100.00;100789.00;6134220;28;20043;-89
2023/04/21 01:58:57;;;;;;;15.70;10.48;;;;;;;5.61;100.00;100779.81;6099418;28;20071;-89
2023/04/21 02:01:58;;;;;;;16.90;11.45;;;;;;;5.60;100.00;100780.72;6084080;28;20059;-89
2023/04/21 02:05:01;;;;;;;16.65;10.75;;;;;;;5.58;100.00;100778.22;6081302;28;20533;-89
2023/04/21 02:08:06;;;;;;;21.27;13.48;;;;;;;5.55;100.00;100778.41;6101894;28;20040;-89
2023/04/21 02:11:08;;;;;;;14.90;10.82;;;;;;;5.51;100.00;100784.59;6099700;28;20538;-89
2023/04/21 02:14:09;;;;;;;23.20;13.65;;;;;;;5.49;100.00;100785.59;6120870;28;20043;-89
2023/04/21 02:17:14;;;;;;;22.17;14.45;;;;;;;5.49;100.00;100775.31;6110295;29;20052;-89
2023/04/21 02:20:16;;;;;;;23.00;14.98;;;;;;;5.46;100.00;100778.06;6117785;28;20044;-89
2023/04/21 02:23:18;;;;;;;22.40;14.82;;;;;;;5.44;100.00;100779.88;6116844;28;20622;-89
2023/04/21 02:26:21;;;;;;;21.50;14.95;;;;;;;5.45;100.00;100784.13;6083676;28;20079;-90
2023/04/21 02:29:23;;;;;;;21.35;13.55;;;;;;;5.44;100.00;100777.31;6120070;28;20131;-89
2023/04/21 02:32:25;;;;;;;23.40;13.82;;;;;;;5.44;100.00;100770.47;6113095;28;20251;-89
2023/04/21 02:35:29;;;;;;;18.55;11.82;;;;;;;5.39;100.00;100773.28;6123662;28;20402;-89
2023/04/21 02:38:31;;;;;;;21.15;13.13;;;;;;;5.42;100.00;100774.03;6101357;28;20088;-89
2023/04/21 02:41:33;;;;;;;16.98;11.45;;;;;;;5.42;100.00;100776.59;6103446;29;20438;-89
2023/04/21 02:44:39;;;;;;;15.43;11.52;;;;;;;5.36;100.00;100770.84;6091977;28;20356;-89
2023/04/21 02:47:41;;;;;;;16.63;11.38;;;;;;;5.37;100.00;100774.25;6111960;28;20823;-89
2023/04/21 02:50:43;;;;;;;16.85;10.63;;;;;;;5.39;100.00;100777.56;6130222;28;20512;-89
2023/04/21 02:53:47;;;;;;;15.73;11.20;;;;;;;5.43;100.00;100781.63;6133378;28;20043;-89
2023/04/21 02:56:49;;;;;;;16.77;10.88;;;;;;;5.43;100.00;100786.75;6089783;28;20126;-89
2023/04/21 02:59:51;;;;;;;14.38;10.13;;;;;;;5.40;100.00;100780.06;6102262;28;20288;-89
2023/04/21 03:02:53;;;;;;;16.30;10.43;;;;;;;5.40;100.00;100777.47;6128772;28;20414;-89
2023/04/21 03:06:04;;;;;;;14.48;11.15;;;;;;;5.43;100.00;100779.06;6101172;28;20062;-89
2023/04/21 03:09:05;;;;;;;15.07;11.15;;;;;;;5.45;100.00;100782.38;6135863;28;20039;-89
2023/04/21 03:12:07;;;;;;;15.73;10.57;;;;;;;5.47;100.00;100783.13;6125076;28;20050;-89
2023/04/21 03:15:13;;;;;;;17.00;10.65;;;;;;;5.48;100.00;100783.94;6125649;28;20047;-89
2023/04/21 03:18:15;;;;;;;14.98;9.75;;;;;;;5.46;100.00;100783.19;6114766;28;20211;-89
2023/04/21 03:21:20;;;;;;;16.58;10.55;;;;;;;5.46;100.00;100785.75;6119761;28;20096;-89
2023/04/21 03:24:21;;;;;;;15.95;10.80;;;;;;;5.48;100.00;100783.94;6112421;29;20051;-89
2023/04/21 03:27:23;;;;;;;13.88;10.43;;;;;;;5.49;100.00;100783.88;6127594;28;20162;-89
2023/04/21 03:30:26;;;;;;;14.70;9.57;;;;;;;5.45;100.00;100781.56;6122133;28;20311;-89
2023/04/21 03:33:28;;;;;;;14.10;9.70;;;;;;;5.38;100.00;100773.34;6109410;28;20087;-89
2023/04/21 03:36:30;;;;;;;15.57;10.57;;;;;;;5.35;100.00;100781.22;6101386;28;20054;-89
2023/04/21 03:39:33;;;;;;;16.92;11.95;;;;;;;5.30;100.00;100773.75;6120457;28;20127;-89
2023/04/21 03:42:38;;;;;;;14.88;10.48;;;;;;;5.25;100.00;100780.03;6106702;28;20082;-89
2023/04/21 03:45:40;;;;;;;13.80;10.75;;;;;;;5.22;100.00;100781.03;6098812;28;20806;-89
2023/04/21 03:48:42;;;;;;;16.52;10.80;;;;;;;5.18;100.00;100780.34;6111056;28;20039;-89
2023/04/21 03:51:43;;;;;;;16.10;11.23;;;;;;;5.19;100.00;100786.31;6121338;28;20492;-90
2023/04/21 03:54:45;;;;;;;16.80;11.30;;;;;;;5.16;100.00;100784.72;6127980;28;20055;-89
2023/04/21 03:57:47;;;;;;;14.00;10.32;;;;;;;5.19;100.00;100786.31;6133871;28;20506;-90
2023/04/21 04:00:49;;;;;;;16.05;10.50;;;;;;;5.19;100.00;100781.16;6128786;28;20043;-90
2023/04/21 04:03:54;;;;;;;13.30;10.00;;;;;;;5.24;100.00;100783.50;6122055;28;20083;-90
2023/04/21 04:06:56;;;;;;;14.82;9.95;;;;;;;5.27;100.00;100778.22;6119155;28;20102;-89
2023/04/21 04:09:58;;;;;;;15.18;9.85;;;;;;;5.26;100.00;100785.06;6120664;28;20054;-89
2023/04/21 04:13:00;;;;;;;14.63;9.85;;;;;;;5.29;100.00;100781.53;6119746;28;20042;-89
2023/04/21 04:16:02;;;;;;;14.00;9.88;;;;;;;5.31;100.00;100785.66;6131347;28;20052;-90
2023/04/21 04:19:03;;;;;;;16.77;10.80;;;;;;;5.31;100.00;100790.78;6139030;28;20053;-90
2023/04/21 04:22:05;;;;;;;15.75;9.80;;;;;;;5.32;100.00;100784.78;6128629;28;20455;-89
2023/04/21 04:25:08;;;;;;;16.38;9.98;;;;;;;5.34;100.00;100775.25;6112251;28;20190;-90
2023/04/21 04:28:11;;;;;;;14.75;10.50;;;;;;;5.40;100.00;100785.19;6129818;28;20046;-89
2023/04/21 04:31:13;;;;;;;13.80;9.85;;;;;;;5.45;100.00;100782.38;6122204;28;20051;-90
2023/04/21 04:34:16;;;;;;;17.50;9.80;;;;;;;5.52;100.00;100777.75;6132852;28;20043;-90
2023/04/21 04:37:20;;;;;;;18.08;9.77;;;;;;;5.61;100.00;100782.38;6115834;28;20083;-90
2023/04/21 04:40:22;;;;;;;17.73;9.27;;;;;;;5.76;100.00;100779.00;6099441;28;20832;-90
2023/04/21 04:43:27;;;;;;;14.90;9.73;;;;;;;5.90;100.00;100769.69;6109563;28;20043;-90
2023/04/21 04:46:29;;;;;;;15.90;9.73;;;;;;;5.95;100.00;100770.28;6109807;29;20051;-90
2023/04/21 04:49:31;;;;;;;22.35;9.80;;;;;;;5.97;100.00;100768.47;6123944;28;20050;-90
2023/04/21 04:52:33;;;;;;;15.20;9.27;;;;;;;6.01;100.00;100772.50;6112508;28;20112;-90
2023/04/21 04:55:34;;;;;;;14.20;9.27;;;;;;;6.11;100.00;100767.66;6123138;28;20048;-90
2023/04/21 04:58:37;;;;;;;14.13;9.02;;;;;;;6.13;100.00;100768.41;6128332;28;20170;-90
2023/04/21 05:01:41;;;;;;;13.73;8.77;;;;;;;6.23;100.00;100770.38;6108981;28;20087;-90
2023/04/21 05:04:43;;;;;;;15.95;9.93;;;;;;;6.23;100.00;100778.09;6112496;28;20052;-89
2023/04/21 05:07:45;;;;;;;17.23;9.35;;;;;;;6.28;100.00;100775.25;6124861;28;20211;-90
2023/04/21 05:10:47;;;;;;;15.93;9.10;;;;;;;6.36;100.00;100774.81;6118985;28;20140;-90
2023/04/21 05:13:49;;;;;;;15.90;9.00;;;;;;;6.50;100.00;100768.88;6109090;28;20083;-90
2023/04/21 05:16:51;;;;;;;15.95;9.25;;;;;;;6.55;100.00;100777.16;6120412;28;20179;-89
2023/04/21 05:19:53;;;;;;;16.63;9.93;;;;;;;6.56;100.00;100774.50;6122033;28;20076;-89
2023/04/21 05:22:57;;;;;;;15.35;9.57;;;;;;;6.58;100.00;100780.38;6106442;28;20058;-89
2023/04/21 05:25:58;;;;;;;13.82;9.68;;;;;;;6.59;100.00;100779.47;6127746;28;20054;-90
2023/04/21 05:29:04;;;;;;;13.27;9.02;;;;;;;6.70;100.00;100771.13;6119432;28;20462;-90
2023/04/21 05:32:06;;;;;;;13.30;9.55;;;;;;;6.79;100.00;100773.16;6105189;28;20609;-91
2023/04/21 05:35:08;;;;;;;13.85;9.38;;;;;;;6.81;100.00;100776.47;6129092;28;20062;-90
2023/04/21 05:38:10;;;;;;;17.95;9.30;;;;;;;6.85;100.00;100780.50;6126557;28;20503;-90
2023/04/21 05:41:12;;;;;;;17.08;9.57;;;;;;;6.94;100.00;100773.16;6126881;28;20127;-90
2023/04/21 05:44:16;;;;;;;15.30;9.38;;;;;;;7.01;100.00;100767.56;6130936;28;20114;-91
2023/04/21 05:47:18;;;;;;;14.38;9.20;;;;;;;7.09;100.00;100773.06;6125994;28;20052;-91
2023/04/21 05:50:20;;;;;;;15.07;8.88;;;;;;;7.11;100.00;100773.81;6107810;28;20469;-90
2023/04/21 05:53:22;;;;;;;15.25;8.48;;;;;;;7.18;100.00;100776.84;6105371;28;20510;-90
2023/04/21 05:56:24;;;;;;;16.48;9.60;;;;;;;7.24;100.00;100775.63;6106378;28;20054;-90
2023/04/21 05:59:29;;;;;;;13.23;8.13;;;;;;;7.21;100.00;100768.94;6109044;28;20438;-90
2023/04/21 06:02:31;;;;;;;18.33;8.77;;;;;;;7.27;100.00;100763.38;6125422;28;20040;-90
2023/04/21 06:05:33;;;;;;;13.85;8.95;;;;;;;7.30;100.00;100765.81;6127584;28;20044;-91
2023/04/21 06:08:36;;;;;;;13.82;8.73;;;;;;;7.39;100.00;100766.16;6098959;28;20089;-90
2023/04/21 06:11:40;;;;;;;14.60;9.15;;;;;;;7.49;100.00;100765.47;6102165;28;20048;-90
2023/04/21 06:14:42;;;;;;;14.52;9.00;;;;;;;7.60;100.00;100763.97;6101858;28;20055;-91
2023/04/21 06:17:56;;;;;;;16.25;9.50;;;;;;;7.61;100.00;100756.16;6126165;28;20055;-90
2023/04/21 06:21:00;;;;;;;15.20;9.55;;;;;;;7.66;100.00;100750.72;6111441;28;20552;-91
2023/04/21 06:24:02;;;;;;;12.93;8.35;;;;;;;7.86;100.00;100744.31;6138476;28;20293;-91
2023/04/21 06:27:09;;;;;;;14.57;9.38;;;;;;;7.93;100.00;100746.38;6138693;28;20133;-91
2023/04/21 06:30:11;;;;;;;13.43;9.02;;;;;;;7.94;100.00;100748.03;6117416;28;20426;-91
2023/04/21 06:33:13;;;;;;;14.95;8.40;;;;;;;8.01;100.00;100743.31;6112051;28;20105;-91
2023/04/21 06:36:15;;;;;;;17.38;9.25;;;;;;;8.13;100.00;100733.97;6122633;28;20053;-91
2023/04/21 06:39:18;;;;;;;12.40;8.57;;;;;;;8.16;100.00;100726.00;6106859;28;20202;-91
2023/04/21 06:42:20;;;;;;;13.73;8.77;;;;;;;8.18;100.00;100734.47;6114130;28;20150;-91
2023/04/21 06:45:22;;;;;;;13.98;8.43;;;;;;;8.37;100.00;100731.50;6137634;28;20438;-91
2023/04/21 06:48:25;;;;;;;20.23;9.80;;;;;;;8.45;100.00;100731.88;6126605;28;20054;-90
2023/04/21 06:51:27;;;;;;;13.80;8.65;;;;;;;8.59;100.00;100725.75;6109052;28;20062;-91
2023/04/21 06:54:29;;;;;;;17.98;9.52;;;;;;;8.66;100.00;100726.19;6128711;28;20048;-90
2023/04/21 06:57:31;;;;;;;15.95;9.10;;;;;;;8.78;100.00;100728.75;6124712;28;20040;-91
2023/04/21 07:00:33;;;;;;;16.95;8.60;;;;;;;8.83;100.00;100721.50;6107850;28;20071;-90
2023/04/21 07:03:35;;;;;;;13.75;7.97;;;;;;;8.87;100.00;100722.16;6107787;28;20039;-90
2023/04/21 07:06:37;;;;;;;16.45;8.93;;;;;;;9.06;100.00;100719.09;6117224;28;20114;-91
2023/04/21 07:09:41;;;;;;;15.60;8.48;;;;;;;9.03;100.00;100716.75;6099723;28;20052;-90
2023/04/21 07:12:46;;;;;;;16.50;8.30;;;;;;;9.11;100.00;100719.59;6137633;28;20101;-91
2023/04/21 07:15:48;;;;;;;13.98;8.43;;;;;;;9.18;100.00;100720.00;6109158;29;20417;-91
2023/04/21 07:18:49;;;;;;;16.92;8.82;;;;;;;9.24;100.00;100720.41;6125509;28;20038;-91
2023/04/21 07:21:54;;;;;;;14.30;8.73;;;;;;;9.35;100.00;100717.06;6128022;28;20047;-90
2023/04/21 07:24:57;;;;;;;15.55;8.55;;;;;;;9.47;100.00;100716.19;6108214;28;20043;-90
2023/04/21 07:28:01;;;;;;;14.95;8.15;;;;;;;9.50;100.00;100715.16;6120657;28;20099;-91
2023/04/21 07:31:03;;;;;;;12.73;8.40;;;;;;;9.72;100.00;100711.84;6112525;28;20051;-90
2023/04/21 07:34:08;;;;;;;17.73;8.27;;;;;;;9.76;100.00;100713.25;6122364;28;20132;-90
2023/04/21 07:37:10;;;;;;;17.33;8.30;;;;;;;9.82;100.00;100714.59;6115360;28;20142;-91
2023/04/21 07:40:13;;;;;;;15.82;8.48;;;;;;;9.81;100.00;100716.38;6104563;28;20052;-90
2023/04/21 07:43:15;;;;;;;14.15;8.50;;;;;;;9.90;100.00;100709.69;6124178;28;20043;-90
2023/04/21 07:46:16;;;;;;;18.80;9.65;;;;;;;9.95;100.00;100707.59;6135622;28;20043;-90
2023/04/21 07:49:19;;;;;;;17.17;9.38;;;;;;;9.99;100.00;100709.03;6127987;28;20062;-90
2023/04/21 07:52:22;;;;;;;16.40;8.75;;;;;;;10.03;100.00;100701.84;6115537;28;20057;-90
2023/04/21 07:55:23;;;;;;;14.50;9.02;;;;;;;10.19;100.00;100696.38;6112156;28;20817;-91
2023/04/21 07:58:25;;;;;;;16.73;8.73;;;;;;;10.33;100.00;100697.03;6108695;28;20051;-91
2023/04/21 08:01:27;;;;;;;15.65;8.70;;;;;;;10.43;100.00;100693.72;6105128;28;20481;-91
2023/04/21 08:04:29;;;;;;;17.95;9.25;;;;;;;10.53;100.00;100697.25;6130438;28;20047;-91
2023/04/21 08:07:31;;;;;;;17.50;8.50;;;;;;;10.62;100.00;100690.56;6128698;28;20106;-91
2023/04/21 08:10:33;;;;;;;14.65;8.30;;;;;;;10.71;100.00;100693.28;6131170;28;20062;-89
2023/04/21 08:13:35;;;;;;;16.70;9.23;;;;;;;10.78;100.00;100698.78;6132405;28;20043;-90
2023/04/21 08:16:40;;;;;;;13.35;8.27;;;;;;;10.86;100.00;100696.47;6121873;28;20059;-90
2023/04/21 08:19:42;;;;;;;15.57;8.95;;;;;;;11.02;100.00;100692.66;6104926;28;20053;-90
2023/04/21 08:22:45;;;;;;;18.45;9.20;;;;;;;11.15;100.00;100695.94;6139361;28;20046;-90
2023/04/21 08:25:49;;;;;;;19.20;9.38;;;;;;;11.33;100.00;100688.47;6112154;28;20649;-91
2023/04/21 08:28:51;;;;;;;16.60;8.15;;;;;;;11.42;100.00;100683.38;6121941;28;20040;-91
2023/04/21 08:31:54;;;;;;;18.60;9.00;;;;;;;11.48;100.00;100678.63;6126456;28;20040;-91
2023/04/21 08:34:55;;;;;;;14.80;8.52;;;;;;;11.60;100.00;100683.69;6098427;28;20508;-91
2023/04/21 08:38:03;;;;;;;14.23;9.00;;;;;;;11.71;100.00;100682.00;6120482;28;20498;-90
2023/04/21 08:41:06;;;;;;;12.00;8.00;;;;;;;11.79;100.00;100677.81;6120913;28;21182;-90
2023/04/21 08:44:10;;;;;;;16.90;9.23;;;;;;;11.82;100.00;100674.97;6111326;28;20479;-90
2023/04/21 08:47:14;;;;;;;15.75;8.85;;;;;;;12.00;100.00;100669.25;6112154;28;20114;-90
2023/04/21 08:50:16;;;;;;;17.92;8.82;;;;;;;12.18;100.00;100672.09;6117441;28;20138;-89
2023/04/21 08:53:18;;;;;;;14.82;8.57;;;;;;;12.33;100.00;100672.59;6119052;28;20039;-88
2023/04/21 08:56:21;;;;;;;16.25;8.43;;;;;;;12.41;100.00;100663.19;6107516;28;20058;-88
2023/04/21 08:59:22;;;;;;;14.35;9.23;;;;;;;12.49;100.00;100667.72;6124313;28;20051;-88
2023/04/21 09:02:25;;;;;;;18.80;9.10;;;;;;;12.59;100.00;100660.81;6108606;28;20126;-88
2023/04/21 09:05:29;;;;;;;16.20;8.10;;;;;;;12.74;100.00;100674.25;6128707;28;20043;-88
2023/04/21 09:08:36;;;;;;;13.35;8.45;;;;;;;12.89;100.00;100672.13;6106642;28;20048;-88
2023/04/21 09:11:37;;;;;;;12.57;7.82;;;;;;;13.03;100.00;100661.34;6130497;28;20348;-88
2023/04/21 09:14:42;;;;;;;11.48;7.53;;;;;;;13.18;100.00;100658.38;6119120;28;20513;-88
2023/04/21 09:17:45;;;;;;;15.32;7.88;;;;;;;13.31;100.00;100669.34;6109854;28;20633;-89
2023/04/21 09:20:52;;;;;;;13.50;7.63;;;;;;;13.37;100.00;100662.81;6100483;28;20058;-88
2023/04/21 09:24:00;;;;;;;11.45;7.03;;;;;;;13.45;100.00;100663.75;6136605;28;20039;-89
2023/04/21 09:27:03;;;;;;;13.85;7.93;;;;;;;13.55;100.00;100664.59;6124784;28;20056;-88
2023/04/21 09:30:06;;;;;;;14.63;7.05;;;;;;;13.65;100.00;100661.16;6121697;28;20047;-89
2023/04/21 09:33:16;;;;;;;13.02;6.70;;;;;;;13.71;100.00;100651.03;6131625;28;20159;-90
2023/04/21 09:36:31;;;;;;;12.57;6.95;;;;;;;13.84;100.00;100653.34;6120712;28;20046;-90
2023/04/21 09:39:33;;;;;;;12.57;6.93;;;;;;;13.98;100.00;100660.69;6129609;28;20179;-90
2023/04/21 09:42:55;;;;;;;8.77;6.40;;;;;;;14.08;100.00;100645.06;6124266;28;20485;-90
2023/04/21 09:45:59;;;;;;;13.07;6.38;;;;;;;14.21;100.00;100642.19;6110602;28;20051;-90
2023/04/21 09:49:02;;;;;;;15.15;6.85;;;;;;;14.28;100.00;100639.81;6119704;28;20520;-90
2023/04/21 09:52:04;;;;;;;11.77;6.50;;;;;;;14.33;100.00;100635.81;6099068;28;20047;-90
2023/04/21 09:55:25;;;;;;;9.18;6.50;;;;;;;14.43;100.00;100634.00;6135818;28;20200;-90
2023/04/21 09:58:32;;;;;;;12.98;6.60;;;;;;;14.50;100.00;100634.22;6112218;28;20051;-89
2023/04/21 10:01:37;;;;;;;12.20;6.22;;;;;;;14.55;100.00;100631.22;6128901;28;20074;-89
2023/04/21 10:04:41;;;;;;;9.73;5.95;;;;;;;14.70;100.00;100624.56;6083598;28;20062;-89
2023/04/21 10:07:45;;;;;;;12.30;5.65;;;;;;;14.79;100.00;100628.09;6128278;28;20055;-90
2023/04/21 10:10:48;;;;;;;11.38;6.13;;;;;;;14.88;100.00;100624.63;6116114;28;20066;-90
2023/04/21 10:13:50;;;;;;;13.45;6.07;;;;;;;14.99;100.00;100621.78;6125140;28;20062;-89
2023/04/21 10:17:04;;;;;;;8.50;6.07;;;;;;;15.12;100.00;100615.41;6124818;28;20043;-90
2023/04/21 10:20:08;;;;;;;7.38;6.15;;;;;;;15.25;100.00;100605.41;6101479;28;20506;-90
2023/04/21 10:23:10;;;;;;;12.30;6.50;;;;;;;15.33;100.00;100602.88;6134216;28;20044;-90
2023/04/21 10:26:12;;;;;;;11.70;6.32;;;;;;;15.43;100.00;100608.03;6122271;28;20151;-89
2023/04/21 10:29:15;;;;;;;9.50;5.82;;;;;;;15.57;100.00;100589.19;6116796;28;20044;-90
2023/04/21 10:32:38;;;;;;;11.43;6.10;;;;;;;15.71;100.00;100603.53;6118749;28;20170;-91
2023/04/21 10:35:59;;;;;;;12.30;5.45;;;;;;;15.79;100.00;100595.75;6101505;28;20058;-90
2023/04/21 10:39:02;;;;;;;9.15;5.10;;;;;;;15.88;100.00;100586.19;6122585;28;20398;-90
2023/04/21 10:42:25;;;;;;;8.43;5.60;;;;;;;16.02;100.00;100582.97;6122026;28;20102;-90
2023/04/21 10:45:27;;;;;;;11.98;5.28;;;;;;;16.08;100.00;100581.56;6115912;28;20459;-90
2023/04/21 10:48:36;;;;;;;9.38;4.57;;;;;;;16.09;100.00;100581.38;6126958;28;20202;-89
2023/04/21 10:52:01;;;;;;;9.45;5.35;;;;;;;16.17;100.00;100579.78;6099050;28;20402;-92
2023/04/21 10:55:09;;;;;;;9.68;4.65;;;;;;;16.29;100.00;100576.75;6105578;28;20375;-90
2023/04/21 10:58:11;;;;;;;9.95;4.38;;;;;;;16.37;100.00;100568.13;6106074;28;20159;-90
2023/04/21 11:01:12;;;;;;;9.25;4.82;;;;;;;16.44;100.00;100563.91;6119908;28;20051;-91
2023/04/21 11:04:19;;;;;;;12.20;4.97;;;;;;;16.52;100.00;100568.31;6113754;29;20417;-90
2023/04/21 11:07:28;;;;;;;17.50;4.88;;;;;;;16.61;100.00;100561.34;6114757;28;20055;-90
2023/04/21 11:10:58;;;;;;;8.65;5.03;;;;;;;16.65;100.00;100567.91;6101124;28;20039;-90
2023/04/21 11:14:00;;;;;;;8.27;4.22;;;;;;;16.72;100.00;100550.56;6130126;28;20777;-90
2023/04/21 11:17:11;;;;;;;12.30;5.00;;;;;;;16.82;100.00;100555.69;6114295;28;20082;-89
2023/04/21 11:20:13;;;;;;;;;;;;;;;16.93;100.00;100555.38;6106197;29;20071;-89
2023/04/21 11:23:21;;;;;;;8.00;4.72;;;;;;;17.00;100.00;100546.72;6122229;28;19964;-90
2023/04/21 11:26:32;;;;;;;11.48;5.18;;;;;;;17.12;100.00;100536.78;6126791;28;20067;-89
2023/04/21 11:29:36;;;;;;;;;;;;;;;17.25;100.00;100541.50;6120733;28;20063;-90
2023/04/21 11:32:38;;;;;;;8.75;4.50;;;;;;;17.41;100.00;100536.25;6121364;28;19958;-89
2023/04/21 11:35:40;;;;;;;10.00;4.88;;;;;;;17.51;100.00;100520.38;6097858;28;20059;-90
2023/04/21 11:38:42;;;;;;;5.45;4.25;;;;;;;17.58;92.55;100525.75;6122606;28;20047;-90
2023/04/21 11:41:47;;;;;;;7.85;4.30;;;;;;;17.60;88.37;100529.84;6136124;28;20426;-90
2023/04/21 11:44:49;;;;;;;6.30;4.20;;;;;;;17.69;86.64;100517.56;6107209;28;20806;-90
2023/04/21 11:48:11;;;;;;;8.68;4.22;;;;;;;17.84;93.10;100520.34;6134759;28;20420;-90
2023/04/21 11:51:17;;;;;;;8.98;4.47;;;;;;;18.03;92.89;100519.09;6100651;28;20048;-94
2023/04/21 11:54:24;;;;;;;;;;;;;;;18.10;88.20;100506.97;6112484;28;20513;-95
2023/04/21 11:57:31;;;;;;;7.43;4.50;;;;;;;18.13;82.53;100503.19;6088587;28;19936;-95
2023/04/21 12:00:33;;;;;;;7.68;4.60;;;;;;;18.18;86.99;100506.91;6108051;28;20047;-91
2023/04/21 12:03:36;;;;;;;7.38;4.40;;;;;;;18.29;78.86;100511.78;6122701;28;20062;-91
2023/04/21 12:06:39;;;;;;;8.68;4.43;;;;;;;18.42;73.89;100492.88;6122642;28;20123;-92
2023/04/21 12:09:41;;;;;;;5.70;4.35;;;;;;;18.50;75.88;100486.75;6118552;28;20044;-93
2023/04/21 12:12:47;;;;;;;6.78;4.25;;;;;;;18.59;74.13;100495.41;6126591;28;20051;-94
2023/04/21 12:16:05;;;;;;;8.75;4.35;;;;;;;18.70;74.18;100482.69;6106370;28;20051;-95
2023/04/21 12:19:10;;;;;;;6.70;4.35;;;;;;;18.79;69.80;100486.09;6135940;29;20069;-96
2023/04/21 12:22:17;;;;;;;8.75;4.38;;;;;;;18.89;72.58;100481.44;6124866;28;20047;-96
2023/04/21 12:25:20;;;;;;;9.20;4.55;;;;;;;19.01;72.63;100473.16;6132982;29;20050;-96
2023/04/21 12:28:38;;;;;;;8.32;4.20;;;;;;;19.11;70.87;100479.75;6126245;28;20058;-96
2023/04/21 12:31:43;;;;;;;6.35;4.32;;;;;;;19.28;71.40;100474.38;6125368;28;20051;-95
2023/04/21 12:34:47;;;;;;;6.13;3.80;;;;;;;19.42;67.14;100478.78;6119658;28;20178;-96
2023/04/21 12:37:50;;;;;;;6.50;4.28;;;;;;;19.51;63.47;100459.34;6113805;28;20055;-96
2023/04/21 12:40:58;;;;;;;7.15;4.13;;;;;;;19.56;63.25;100480.63;6094633;28;20040;-95
2023/04/21 12:44:00;;;;;;;7.25;4.22;;;;;;;19.54;59.68;100472.09;6139216;28;20043;-95
2023/04/21 12:47:03;;;;;;;6.05;3.90;;;;;;;19.57;57.66;100471.72;6104590;28;20044;-96
2023/04/21 12:50:13;;;;;;;6.30;3.92;;;;;;;19.64;62.24;100468.41;6111991;28;20051;-96
2023/04/21 12:53:20;;;;;;;10.10;5.15;;;;;;;19.86;60.24;100472.75;6103847;28;20449;-96
2023/04/21 12:56:23;;;;;;;6.43;3.80;;;;;;;19.89;52.08;100477.63;6129758;28;20057;-96
2023/04/21 12:59:26;;;;;;;5.03;3.70;;;;;;;20.01;50.44;100493.75;6123838;28;20039;-96
2023/04/21 13:02:29;;;;;;;5.90;3.85;;;;;;;20.13;52.56;100475.72;6108309;28;20086;-94
2023/04/21 13:05:32;;;;;;;6.45;4.03;;;;;;;20.25;54.53;100471.59;6102106;28;20134;-96
2023/04/21 13:08:35;;;;;;;5.53;3.70;;;;;;;20.42;51.31;100469.53;6128115;28;20081;-95
2023/04/21 13:11:41;;;;;;;4.32;3.35;;;;;;;20.57;49.91;100461.59;6133279;28;20051;-95
2023/04/21 13:14:43;;;;;;;6.03;3.17;;;;;;;20.62;48.74;100461.84;6131752;28;20050;-95
2023/04/21 13:17:45;;;;;;;5.90;3.55;;;;;;;20.68;45.59;100465.56;6130913;28;20248;-96
2023/04/21 13:20:50;;;;;;;5.38;3.97;;;;;;;20.76;48.98;100450.44;6110062;28;20046;-96
2023/04/21 13:23:52;;;;;;;5.82;3.72;;;;;;;20.90;51.47;100461.09;6123394;29;20521;-95
2023/04/21 13:26:54;;;;;;;4.85;3.47;;;;;;;21.06;48.21;100445.81;6101491;29;20051;-95
2023/04/21 13:29:57;;;;;;;3.38;3.03;;;;;;;21.11;45.58;100444.44;6102370;28;20044;-96
2023/04/21 13:32:59;;;;;;;4.15;2.90;;;;;;;21.20;47.12;100446.72;6130205;28;20444;-96
2023/04/21 13:36:02;;;;;;;5.30;3.70;;;;;;;21.32;47.63;100447.00;6123022;28;20055;-96
2023/04/21 13:39:09;;;;;;;6.05;3.88;;;;;;;21.42;46.60;100434.34;6109058;28;20047;-96
2023/04/21 13:42:10;;;;;;;4.45;3.53;;;;;;;21.42;47.88;100426.44;6127461;28;20614;-96
2023/04/21 13:45:12;;;;;;;4.00;3.47;;;;;;;21.40;47.33;100433.72;6106565;28;20101;-96
2023/04/21 13:48:14;;;;;;;7.07;4.18;;;;;;;21.54;49.31;100413.53;6125930;28;20047;-95
2023/04/21 13:51:18;;;;;;;7.40;4.00;;;;;;;21.56;49.75;100398.31;6101110;29;20566;-96
2023/04/21 13:54:20;;;;;;;4.80;4.10;;;;;;;21.58;49.07;100409.47;6124047;28;20516;-95
2023/04/21 13:57:25;;;;;;;5.10;3.78;;;;;;;21.63;50.05;100408.91;6110126;28;20115;-96
2023/04/21 14:00:27;;;;;;;6.28;3.90;;;;;;;21.67;51.31;100410.94;6107585;28;20129;-95